Time;durP1;ratioP1;P1;durP2;ratioP2;P2;SDS_P1;SDS_P2;PMS_P1;PMS_P2;Temp;Humidity;BMP_temperature;BMP_pressure;BME280_temperature;BME280_humidity;BME280_pressure;Samples;Min_cycle;Max_cycle;Signal;HPM_P1;HPM_P2
2020/12/31 00:00:15;;;;;;;17.25;11.52;;;;;;;3.18;86.92;99528.03;5005117;28;20149;-83
2020/12/31 00:02:42;;;;;;;21.23;11.63;;;;;;;3.17;86.67;99526.31;5004724;28;20058;-83
2020/12/31 00:05:08;;;;;;;17.30;11.18;;;;;;;3.08;86.45;99516.16;5003712;28;20060;-83
2020/12/31 00:07:34;;;;;;;17.90;11.48;;;;;;;3.16;86.12;99518.53;5006130;28;20156;-83
2020/12/31 00:10:01;;;;;;;16.90;11.95;;;;;;;3.17;86.63;99523.72;5000133;28;20126;-84
2020/12/31 00:12:28;;;;;;;17.35;10.57;;;;;;;3.15;86.38;99530.75;5004072;28;20058;-83
2020/12/31 00:14:54;;;;;;;17.45;11.13;;;;;;;3.12;86.40;99519.53;5005050;28;20056;-84
2020/12/31 00:17:21;;;;;;;16.00;10.88;;;;;;;3.14;86.47;99520.34;4998883;28;20331;-84
2020/12/31 00:19:47;;;;;;;15.73;11.38;;;;;;;3.13;85.97;99514.25;5009867;28;20060;-83
2020/12/31 00:22:13;;;;;;;16.35;11.48;;;;;;;3.14;86.37;99518.59;5016276;28;20049;-84
2020/12/31 00:24:40;;;;;;;15.02;10.23;;;;;;;3.18;86.47;99519.34;5020528;28;20085;-84
2020/12/31 00:27:06;;;;;;;14.45;10.23;;;;;;;3.21;86.36;99515.78;5017539;28;20529;-84
2020/12/31 00:29:33;;;;;;;13.90;9.82;;;;;;;3.23;86.07;99517.44;4998664;28;20058;-85
2020/12/31 00:31:59;;;;;;;16.58;10.43;;;;;;;3.19;85.85;99510.59;5003031;28;20058;-83
2020/12/31 00:34:26;;;;;;;13.23;10.20;;;;;;;3.20;86.56;99500.97;5003646;28;20524;-81
2020/12/31 00:36:53;;;;;;;14.52;9.75;;;;;;;3.16;86.00;99505.44;5005330;28;20060;-83
2020/12/31 00:39:20;;;;;;;15.82;10.80;;;;;;;3.11;85.99;99509.97;5011184;28;20138;-83
2020/12/31 00:41:46;;;;;;;16.25;10.98;;;;;;;3.10;86.01;99514.34;5009972;28;20105;-82
2020/12/31 00:44:13;;;;;;;13.07;9.95;;;;;;;3.07;86.05;99498.75;5009848;28;20142;-82
2020/12/31 00:46:39;;;;;;;16.92;10.93;;;;;;;3.16;85.67;99513.28;5011109;28;20089;-82
2020/12/31 00:49:06;;;;;;;16.70;10.15;;;;;;;3.16;85.70;99508.91;5011308;28;20062;-82
2020/12/31 00:51:33;;;;;;;13.38;9.70;;;;;;;3.16;85.60;99503.69;5005389;28;20046;-83
2020/12/31 00:53:59;;;;;;;14.80;10.23;;;;;;;3.09;85.77;99506.53;5009085;28;20052;-82
2020/12/31 00:56:26;;;;;;;13.55;9.88;;;;;;;3.13;85.51;99516.88;5009427;28;20057;-83
2020/12/31 00:58:53;;;;;;;15.30;9.80;;;;;;;3.12;85.39;99509.94;5008494;28;20128;-84
2020/12/31 01:01:20;;;;;;;16.42;10.07;;;;;;;3.10;85.42;99511.75;5003017;28;20145;-82
2020/12/31 01:03:46;;;;;;;15.35;9.77;;;;;;;3.08;85.25;99505.69;5002618;28;20064;-83
2020/12/31 01:06:13;;;;;;;15.43;9.95;;;;;;;3.09;85.13;99507.41;5005983;28;20080;-82
2020/12/31 01:08:40;;;;;;;13.23;9.35;;;;;;;3.10;85.15;99505.66;5005882;28;20436;-83
2020/12/31 01:11:07;;;;;;;15.52;10.00;;;;;;;3.07;84.69;99503.97;5005499;28;20053;-82
2020/12/31 01:13:33;;;;;;;15.30;9.95;;;;;;;3.06;84.76;99507.50;5004043;28;20052;-84
2020/12/31 01:15:59;;;;;;;15.00;9.88;;;;;;;3.04;84.95;99497.97;5006632;28;20161;-84
2020/12/31 01:18:26;;;;;;;15.95;9.57;;;;;;;3.07;85.23;99503.97;5006207;28;20053;-85
2020/12/31 01:20:52;;;;;;;17.58;9.00;;;;;;;3.03;84.94;99510.19;4992688;28;20258;-84
2020/12/31 01:23:19;;;;;;;16.38;9.80;;;;;;;3.03;85.07;99502.34;5007133;28;20156;-85
2020/12/31 01:25:52;;;;;;;14.00;9.25;;;;;;;3.04;85.59;99509.28;5007797;28;20056;-85
2020/12/31 01:28:19;;;;;;;17.35;10.35;;;;;;;3.02;84.92;99512.84;5007159;28;20069;-83
2020/12/31 01:30:45;;;;;;;15.63;9.75;;;;;;;3.02;85.12;99498.03;5006838;28;20554;-84
2020/12/31 01:33:12;;;;;;;15.07;9.90;;;;;;;3.03;84.82;99504.09;4987286;28;20133;-83
2020/12/31 01:35:38;;;;;;;16.27;9.63;;;;;;;3.02;85.23;99498.03;5005364;28;20133;-84
2020/12/31 01:38:05;;;;;;;12.43;8.68;;;;;;;3.04;85.31;99488.38;5006494;28;20056;-84
2020/12/31 01:40:31;;;;;;;14.20;9.93;;;;;;;3.06;84.85;99490.94;5004086;28;20054;-84
2020/12/31 01:42:57;;;;;;;14.13;9.63;;;;;;;3.09;84.65;99488.25;5009305;28;20056;-85
2020/12/31 01:45:24;;;;;;;15.25;10.13;;;;;;;3.12;84.58;99490.78;5007251;28;20108;-85
2020/12/31 01:47:50;;;;;;;15.57;10.15;;;;;;;3.14;84.86;99489.81;5002761;28;20058;-85
2020/12/31 01:50:18;;;;;;;16.23;9.63;;;;;;;3.16;84.48;99492.34;5011554;28;20063;-84
2020/12/31 01:52:46;;;;;;;15.50;10.07;;;;;;;3.17;84.48;99499.31;5009695;28;20088;-85
2020/12/31 01:55:13;;;;;;;17.60;10.23;;;;;;;3.13;84.32;99489.88;5015734;28;20056;-84
2020/12/31 01:57:39;;;;;;;14.20;9.77;;;;;;;3.15;85.25;99488.88;5009835;28;20057;-86
2020/12/31 02:00:07;;;;;;;15.80;10.35;;;;;;;3.13;84.75;99482.00;5015511;28;20076;-85
2020/12/31 02:05:04;;;;;;;13.65;9.77;;;;;;;3.23;83.65;99487.81;4995623;28;20054;-89
2020/12/31 02:07:31;;;;;;;15.40;9.90;;;;;;;3.25;84.46;99491.22;4996685;28;20077;-87
2020/12/31 02:09:58;;;;;;;15.25;9.60;;;;;;;3.22;84.57;99481.72;4995735;28;20465;-87
2020/12/31 02:12:25;;;;;;;15.85;10.50;;;;;;;3.22;84.21;99484.34;4996440;28;20466;-88
2020/12/31 02:14:58;;;;;;;14.23;10.20;;;;;;;3.22;84.18;99481.72;4995918;28;20099;-89
2020/12/31 02:17:24;;;;;;;15.02;10.30;;;;;;;3.16;84.57;99472.28;4995015;28;20046;-89
2020/12/31 02:19:50;;;;;;;16.40;10.85;;;;;;;3.16;84.77;99477.53;4996046;28;20061;-88
2020/12/31 02:22:17;;;;;;;16.55;10.15;;;;;;;3.14;85.13;99478.50;4978484;28;20053;-88
2020/12/31 02:24:44;;;;;;;16.15;11.02;;;;;;;3.14;84.76;99475.88;4996621;28;20053;-88
2020/12/31 02:27:10;;;;;;;15.50;10.55;;;;;;;3.11;85.16;99484.69;4995005;28;20046;-88
2020/12/31 02:29:37;;;;;;;18.40;11.18;;;;;;;3.07;84.68;99485.66;4963103;28;20443;-88
2020/12/31 02:32:03;;;;;;;17.58;11.18;;;;;;;3.01;84.92;99480.63;4996060;28;20405;-87
2020/12/31 02:34:30;;;;;;;16.45;11.27;;;;;;;2.94;85.51;99481.72;4995866;28;20058;-88
2020/12/31 02:36:57;;;;;;;15.85;11.18;;;;;;;2.89;85.84;99474.91;4996071;28;20061;-87
2020/12/31 02:39:23;;;;;;;16.90;10.93;;;;;;;2.86;86.24;99478.47;4995289;28;20133;-88
2020/12/31 02:41:50;;;;;;;17.65;11.35;;;;;;;2.83;86.41;99474.19;4998652;28;20060;-87
2020/12/31 02:44:16;;;;;;;17.88;11.45;;;;;;;2.84;86.20;99475.03;4989654;28;20046;-89
2020/12/31 02:46:43;;;;;;;17.00;11.13;;;;;;;2.86;86.66;99478.47;4984141;28;20069;-88
2020/12/31 02:49:09;;;;;;;16.23;11.38;;;;;;;2.87;86.67;99472.34;4980744;28;20489;-88
2020/12/31 02:51:38;;;;;;;17.17;10.75;;;;;;;2.90;86.48;99461.78;4982287;28;20504;-88
2020/12/31 02:54:04;;;;;;;16.73;10.98;;;;;;;2.93;85.73;99464.31;4994550;28;20057;-88
2020/12/31 02:56:31;;;;;;;16.88;10.80;;;;;;;2.91;86.33;99457.41;5001713;28;20060;-89
2020/12/31 02:58:58;;;;;;;16.55;11.10;;;;;;;2.92;86.46;99454.75;4996160;28;20061;-89
2020/12/31 03:01:24;;;;;;;17.73;11.65;;;;;;;2.87;86.06;99454.03;4978390;28;20401;-89
2020/12/31 03:03:51;;;;;;;18.95;11.50;;;;;;;2.84;86.58;99451.50;4995413;28;20125;-88
2020/12/31 03:06:18;;;;;;;18.30;11.90;;;;;;;2.80;86.96;99447.31;4994915;28;20065;-88
2020/12/31 03:08:45;;;;;;;17.27;11.23;;;;;;;2.83;86.68;99462.91;4978042;28;20401;-88
2020/12/31 03:11:18;;;;;;;17.45;11.55;;;;;;;2.94;85.92;99458.19;4995252;28;20054;-88
2020/12/31 03:13:45;;;;;;;18.80;11.80;;;;;;;2.90;85.87;99455.72;4995816;28;20464;-89
2020/12/31 03:16:12;;;;;;;18.15;11.77;;;;;;;2.90;85.70;99455.72;4978406;28;20434;-88
2020/12/31 03:18:38;;;;;;;20.42;12.38;;;;;;;2.89;86.44;99456.59;4978411;28;20122;-89
2020/12/31 03:21:06;;;;;;;18.08;11.65;;;;;;;2.93;86.25;99453.84;4978265;28;20469;-89
2020/12/31 03:23:32;;;;;;;20.80;11.90;;;;;;;2.92;85.89;99448.69;4995472;28;20073;-88
2020/12/31 03:25:59;;;;;;;20.92;11.73;;;;;;;2.87;86.25;99443.56;4994919;28;20417;-89
2020/12/31 03:28:25;;;;;;;21.05;12.32;;;;;;;2.90;86.38;99440.88;4978259;28;20125;-89
2020/12/31 03:30:52;;;;;;;18.17;11.75;;;;;;;2.90;86.12;99442.63;4996143;28;20050;-88
2020/12/31 03:33:18;;;;;;;17.50;12.05;;;;;;;2.84;86.22;99435.81;4979357;28;20073;-88
2020/12/31 03:35:49;;;;;;;22.15;13.07;;;;;;;2.91;86.29;99439.97;4996513;28;20069;-88
2020/12/31 03:38:18;;;;;;;19.42;12.50;;;;;;;2.94;86.93;99437.28;4978743;28;20450;-89
2020/12/31 03:40:45;;;;;;;18.40;12.10;;;;;;;2.92;86.79;99439.06;4995730;28;20050;-89
2020/12/31 03:43:12;;;;;;;20.85;12.38;;;;;;;2.88;86.83;99426.13;4994862;28;20057;-89
2020/12/31 03:45:40;;;;;;;19.52;12.73;;;;;;;2.92;86.33;99435.59;4994060;28;20374;-89
2020/12/31 03:48:07;;;;;;;19.23;12.07;;;;;;;2.88;86.52;99423.53;4994911;28;20047;-88
2020/12/31 03:50:34;;;;;;;21.92;12.50;;;;;;;2.86;86.41;99414.84;4977707;28;20061;-87
2020/12/31 03:53:00;;;;;;;19.48;12.20;;;;;;;2.88;86.15;99426.13;4978171;28;20120;-88
2020/12/31 03:55:26;;;;;;;17.95;11.68;;;;;;;2.87;86.02;99422.66;4978327;28;20050;-88
2020/12/31 03:57:52;;;;;;;19.17;12.50;;;;;;;2.85;86.38;99418.38;4994790;28;20046;-89
2020/12/31 04:00:19;;;;;;;20.55;12.57;;;;;;;2.86;86.27;99414.84;4977950;28;20061;-88
2020/12/31 04:02:47;;;;;;;21.27;12.70;;;;;;;2.82;86.15;99408.91;4977853;28;20050;-88
2020/12/31 04:05:14;;;;;;;19.10;11.95;;;;;;;2.87;86.58;99399.13;4980159;28;20145;-87
2020/12/31 04:07:40;;;;;;;22.92;12.60;;;;;;;2.86;86.14;99405.25;4995071;28;20054;-88
2020/12/31 04:10:07;;;;;;;17.73;12.05;;;;;;;2.86;85.80;99405.25;4996827;28;20174;-88
2020/12/31 04:12:33;;;;;;;19.73;12.00;;;;;;;2.84;85.89;99409.69;4983381;28;20545;-89
2020/12/31 04:15:14;;;;;;;19.48;11.63;;;;;;;2.84;85.71;99396.59;5020633;28;20030;-90
2020/12/31 04:17:40;;;;;;;19.83;12.45;;;;;;;2.83;86.15;99399.28;5003880;28;20106;-89
2020/12/31 04:20:07;;;;;;;19.92;12.07;;;;;;;2.84;85.99;99401.84;5011699;28;20062;-87
2020/12/31 04:22:33;;;;;;;17.35;11.80;;;;;;;2.82;85.91;99387.97;4987366;28;20137;-88
2020/12/31 04:25:00;;;;;;;19.60;11.50;;;;;;;2.79;85.86;99393.31;4999911;28;20062;-87
2020/12/31 04:27:26;;;;;;;18.42;12.38;;;;;;;2.79;86.62;99388.06;4982292;28;20505;-86
2020/12/31 04:29:53;;;;;;;20.13;12.30;;;;;;;2.78;86.13;99386.34;4998686;28;20092;-87
2020/12/31 04:32:19;;;;;;;20.35;12.40;;;;;;;2.82;86.15;99387.97;4982645;28;20058;-87
2020/12/31 04:34:46;;;;;;;19.50;12.18;;;;;;;2.80;85.80;99384.56;4998913;28;20129;-87
2020/12/31 04:37:12;;;;;;;19.00;11.68;;;;;;;2.79;86.27;99386.31;5000296;28;20430;-88
2020/12/31 04:39:38;;;;;;;18.65;11.75;;;;;;;2.76;85.68;99377.69;5000964;28;20046;-88
2020/12/31 04:42:05;;;;;;;23.05;11.65;;;;;;;2.77;85.98;99382.88;4983393;28;20367;-88
2020/12/31 04:44:32;;;;;;;15.98;10.65;;;;;;;2.79;85.83;99381.09;5004075;28;20133;-88
2020/12/31 04:47:02;;;;;;;21.40;11.70;;;;;;;2.80;86.21;99374.09;4981507;28;20050;-88
2020/12/31 04:49:43;;;;;;;19.48;11.02;;;;;;;2.76;86.22;99382.94;5003221;28;20046;-88
2020/12/31 04:52:11;;;;;;;20.85;11.13;;;;;;;2.80;86.15;99381.94;5004299;28;20470;-88
2020/12/31 04:54:39;;;;;;;18.15;10.93;;;;;;;2.81;86.20;99381.91;5004112;28;20133;-87
2020/12/31 04:57:06;;;;;;;15.48;10.60;;;;;;;2.79;85.87;99383.69;5011959;28;20117;-86
2020/12/31 04:59:33;;;;;;;17.23;11.35;;;;;;;2.76;86.18;99382.94;5000323;28;20048;-89
2020/12/31 05:01:59;;;;;;;18.52;11.10;;;;;;;2.81;85.97;99387.13;5003014;28;20038;-88
2020/12/31 05:04:26;;;;;;;18.98;11.57;;;;;;;2.79;85.63;99386.31;5002448;28;20077;-88
2020/12/31 05:06:54;;;;;;;18.45;11.65;;;;;;;2.79;86.29;99382.84;5002285;28;20141;-88
2020/12/31 05:09:21;;;;;;;18.73;11.45;;;;;;;2.82;86.59;99380.13;5008026;28;20062;-89
2020/12/31 05:11:53;;;;;;;19.02;11.55;;;;;;;2.80;86.48;99382.81;4989234;28;20367;-88
2020/12/31 05:14:35;;;;;;;19.77;12.48;;;;;;;2.77;87.00;99376.81;4981974;28;20121;-88
2020/12/31 05:17:24;;;;;;;17.10;11.32;;;;;;;2.77;87.06;99374.19;4998703;28;20099;-88
2020/12/31 05:19:50;;;;;;;16.60;11.27;;;;;;;2.81;87.32;99375.81;4978535;28;20057;-90
2020/12/31 05:22:19;;;;;;;17.63;12.02;;;;;;;2.88;86.63;99379.91;4996594;28;20542;-89
2020/12/31 05:24:52;;;;;;;18.27;12.30;;;;;;;2.83;86.26;99378.38;4997426;28;20053;-90
2020/12/31 05:27:22;;;;;;;19.42;11.82;;;;;;;2.92;86.98;99372.84;4998261;28;20137;-88
2020/12/31 05:29:58;;;;;;;19.92;11.75;;;;;;;2.92;86.68;99381.53;4980725;28;20061;-90
2020/12/31 05:32:29;;;;;;;18.55;11.98;;;;;;;2.91;87.10;99372.00;4997520;28;20058;-89
2020/12/31 05:34:58;;;;;;;18.17;11.90;;;;;;;2.87;86.70;99361.66;4998602;28;20050;-89
2020/12/31 05:37:27;;;;;;;18.88;12.73;;;;;;;2.90;87.17;99366.81;4997525;28;20050;-88
2020/12/31 05:39:54;;;;;;;18.88;12.25;;;;;;;2.83;87.12;99353.91;4979620;28;20070;-87
2020/12/31 05:42:22;;;;;;;18.23;12.13;;;;;;;2.84;87.42;99357.38;4997805;28;20060;-88
2020/12/31 05:45:10;;;;;;;17.65;11.65;;;;;;;2.88;86.84;99361.63;4997724;28;20054;-89
2020/12/31 05:47:44;;;;;;;18.58;11.70;;;;;;;2.81;86.48;99362.75;4995649;28;20137;-88
2020/12/31 05:50:16;;;;;;;18.15;12.95;;;;;;;2.85;86.69;99366.94;5001601;28;20054;-88
2020/12/31 05:52:44;;;;;;;16.83;11.48;;;;;;;2.86;86.83;99370.41;4988311;28;20118;-89
2020/12/31 05:55:15;;;;;;;17.17;11.07;;;;;;;2.86;86.80;99370.41;4981054;28;20058;-88
2020/12/31 05:57:43;;;;;;;18.38;11.40;;;;;;;2.92;87.26;99357.16;4986616;28;20050;-88
2020/12/31 06:00:16;;;;;;;16.55;11.25;;;;;;;2.89;86.53;99355.50;5005902;28;20046;-88
2020/12/31 06:03:10;;;;;;;15.70;10.90;;;;;;;3.01;86.47;99372.53;4989592;28;20061;-88
2020/12/31 06:06:02;;;;;;;15.85;10.68;;;;;;;3.03;86.39;99376.81;4987514;28;20050;-89
2020/12/31 06:08:34;;;;;;;16.33;10.70;;;;;;;3.01;86.03;99368.16;5001200;28;20070;-89
2020/12/31 06:11:02;;;;;;;16.25;10.93;;;;;;;3.07;86.31;99375.81;5001353;28;20054;-88
2020/12/31 06:13:49;;;;;;;15.65;10.32;;;;;;;3.09;85.65;99378.38;5001376;28;20101;-90
2020/12/31 06:16:18;;;;;;;15.55;10.20;;;;;;;3.17;85.30;99386.81;5018072;28;20042;-90
2020/12/31 06:18:48;;;;;;;14.82;10.02;;;;;;;3.27;84.62;99382.16;4990698;28;20061;-88
2020/12/31 06:21:30;;;;;;;15.27;10.07;;;;;;;3.33;83.73;99381.94;4988234;28;20066;-89
2020/12/31 06:24:09;;;;;;;16.70;10.70;;;;;;;3.30;84.12;99380.31;5014542;28;20069;-89
2020/12/31 06:26:39;;;;;;;14.85;9.80;;;;;;;3.27;83.73;99384.78;5000697;28;20123;-90
2020/12/31 06:29:09;;;;;;;16.10;10.77;;;;;;;3.29;83.99;99383.81;5000962;28;20110;-89
2020/12/31 06:31:40;;;;;;;16.10;10.32;;;;;;;3.26;83.68;99383.91;5010898;28;20070;-89
2020/12/31 06:34:07;;;;;;;13.70;9.65;;;;;;;3.22;83.60;99371.84;4983771;28;20057;-88
2020/12/31 06:36:35;;;;;;;13.98;10.18;;;;;;;3.13;83.83;99362.56;5001498;28;20565;-89
2020/12/31 06:39:03;;;;;;;14.45;10.00;;;;;;;3.06;83.97;99370.63;4984408;28;20062;-89
2020/12/31 06:41:31;;;;;;;15.10;9.95;;;;;;;3.09;83.81;99373.16;5010345;28;20187;-92
2020/12/31 06:44:05;;;;;;;14.82;9.57;;;;;;;3.06;84.06;99365.41;5017805;28;20103;-89
2020/12/31 06:46:38;;;;;;;16.42;9.75;;;;;;;3.05;83.26;99369.78;5001715;28;20106;-89
2020/12/31 06:49:05;;;;;;;13.13;9.55;;;;;;;3.06;83.21;99363.63;5018567;28;20034;-89
2020/12/31 06:51:34;;;;;;;12.98;8.77;;;;;;;3.06;83.40;99375.84;5001826;28;20048;-91
2020/12/31 06:54:02;;;;;;;14.25;9.90;;;;;;;3.01;83.03;99368.16;5018331;28;20065;-90
2020/12/31 06:56:46;;;;;;;14.50;9.35;;;;;;;3.01;83.05;99365.53;5017398;28;20050;-90
2020/12/31 06:59:35;;;;;;;15.35;10.02;;;;;;;3.05;82.62;99375.00;4995765;28;20062;-89
2020/12/31 07:02:03;;;;;;;13.63;9.43;;;;;;;3.03;82.25;99361.13;4996157;28;20402;-90
2020/12/31 07:04:41;;;;;;;14.40;9.18;;;;;;;3.03;82.32;99365.50;4996722;28;20436;-89
2020/12/31 07:07:25;;;;;;;17.55;9.50;;;;;;;3.09;82.32;99368.78;4995953;28;20057;-89
2020/12/31 07:09:56;;;;;;;16.13;9.00;;;;;;;3.08;81.82;99356.59;4995082;28;20077;-88
2020/12/31 07:12:41;;;;;;;13.85;8.80;;;;;;;3.11;81.61;99369.59;4996702;28;20046;-88
2020/12/31 07:15:09;;;;;;;14.85;8.75;;;;;;;3.10;81.58;99367.88;4998956;28;20077;-89
2020/12/31 07:17:43;;;;;;;13.48;8.82;;;;;;;3.07;82.09;99373.19;5006021;28;20065;-89
2020/12/31 07:20:17;;;;;;;17.40;8.95;;;;;;;3.08;81.48;99360.97;5007174;28;20070;-88
2020/12/31 07:22:46;;;;;;;12.85;8.40;;;;;;;3.06;80.70;99368.00;5010257;28;20138;-89
2020/12/31 07:25:17;;;;;;;14.33;8.27;;;;;;;3.08;81.37;99368.81;4992432;28;20057;-88
2020/12/31 07:28:13;;;;;;;11.23;7.65;;;;;;;3.14;80.91;99369.50;4988732;28;20493;-88
2020/12/31 07:31:04;;;;;;;11.52;7.72;;;;;;;3.18;80.03;99368.47;4996350;28;20146;-88
2020/12/31 07:33:37;;;;;;;11.73;8.25;;;;;;;3.18;80.13;99368.47;4978469;28;20058;-88
2020/12/31 07:36:13;;;;;;;13.60;7.97;;;;;;;3.17;80.54;99361.50;4995967;28;20416;-87
2020/12/31 07:38:40;;;;;;;12.40;8.00;;;;;;;3.18;80.06;99363.22;4978865;28;20390;-86
2020/12/31 07:41:11;;;;;;;11.75;7.32;;;;;;;3.26;80.19;99370.84;4994611;28;20504;-86
2020/12/31 07:43:38;;;;;;;12.43;8.05;;;;;;;3.29;80.14;99372.50;4994801;28;20038;-86
2020/12/31 07:46:04;;;;;;;13.63;8.20;;;;;;;3.29;80.15;99367.25;4997242;28;20061;-86
2020/12/31 07:48:31;;;;;;;13.27;7.90;;;;;;;3.30;80.31;99368.97;4998037;28;20469;-87
2020/12/31 07:51:02;;;;;;;12.05;7.32;;;;;;;3.24;79.60;99356.94;4981586;28;20462;-85
2020/12/31 07:53:29;;;;;;;10.23;7.63;;;;;;;3.18;80.16;99359.75;4998855;28;20050;-86
2020/12/31 07:55:57;;;;;;;12.48;7.75;;;;;;;3.16;79.85;99346.72;4999555;28;20054;-86
2020/12/31 07:58:25;;;;;;;11.48;7.72;;;;;;;3.22;80.33;99364.00;4982503;28;20116;-86
2020/12/31 08:01:02;;;;;;;10.07;6.63;;;;;;;3.20;80.10;99352.72;4983505;28;20050;-86
2020/12/31 08:03:42;;;;;;;10.18;6.68;;;;;;;3.23;80.98;99359.59;4980199;28;20448;-87
2020/12/31 08:06:11;;;;;;;12.07;7.63;;;;;;;3.25;80.80;99361.28;4998694;28;20523;-88
2020/12/31 08:08:38;;;;;;;11.43;7.22;;;;;;;3.27;80.43;99358.59;5002638;28;20050;-86
2020/12/31 08:11:08;;;;;;;12.88;7.20;;;;;;;3.28;80.57;99355.94;5016431;28;20062;-87
2020/12/31 08:13:35;;;;;;;10.27;6.88;;;;;;;3.32;80.50;99360.13;5001383;28;20039;-87
2020/12/31 08:16:02;;;;;;;12.18;6.88;;;;;;;3.31;80.43;99345.34;5004795;28;20494;-86
2020/12/31 08:18:32;;;;;;;10.90;6.43;;;;;;;3.30;79.96;99346.28;4999949;28;20410;-87
2020/12/31 08:21:04;;;;;;;8.67;6.23;;;;;;;3.31;80.64;99347.09;4984615;28;20061;-87
2020/12/31 08:23:42;;;;;;;9.23;6.43;;;;;;;3.32;81.20;99349.69;5006373;28;20060;-85
2020/12/31 08:26:15;;;;;;;9.20;6.70;;;;;;;3.38;81.04;99346.00;5000532;28;20132;-85
2020/12/31 08:28:45;;;;;;;10.00;6.22;;;;;;;3.34;80.98;99339.16;4981889;28;20050;-86
2020/12/31 08:31:14;;;;;;;9.13;5.95;;;;;;;3.32;80.16;99335.75;4982396;28;20057;-88
2020/12/31 08:33:42;;;;;;;8.15;5.72;;;;;;;3.36;80.70;99346.06;4998968;28;20061;-86
2020/12/31 08:36:09;;;;;;;8.80;5.53;;;;;;;3.30;81.09;99341.06;4997283;28;20038;-87
2020/12/31 08:38:37;;;;;;;9.95;5.80;;;;;;;3.32;80.61;99347.06;4998495;28;20050;-87
2020/12/31 08:41:08;;;;;;;8.63;5.53;;;;;;;3.36;79.51;99342.59;4997620;28;20046;-87
2020/12/31 08:43:37;;;;;;;8.32;5.70;;;;;;;3.30;79.25;99327.97;4997571;28;20051;-86
2020/12/31 08:46:07;;;;;;;8.20;5.70;;;;;;;3.37;79.39;99345.16;4997571;28;20062;-87
2020/12/31 08:48:36;;;;;;;10.88;6.00;;;;;;;3.36;80.00;99337.34;4996910;28;20146;-87
2020/12/31 08:51:13;;;;;;;8.40;5.80;;;;;;;3.39;79.44;99334.63;4997322;28;20046;-85
2020/12/31 08:54:00;;;;;;;8.65;5.57;;;;;;;3.48;80.19;99343.00;4997332;28;20060;-88
2020/12/31 08:56:29;;;;;;;10.57;5.65;;;;;;;3.48;80.03;99342.16;4979842;28;20073;-87
2020/12/31 08:59:05;;;;;;;7.18;4.93;;;;;;;3.47;80.60;99332.59;4981224;28;20496;-87
2020/12/31 09:01:32;;;;;;;8.52;5.38;;;;;;;3.54;79.54;99339.34;5532425;23;20445;-88
2020/12/31 09:04:14;;;;;;;8.98;5.82;;;;;;;3.47;79.97;99324.75;5007592;28;20153;-87
2020/12/31 09:06:44;;;;;;;6.57;5.45;;;;;;;3.55;80.63;99335.81;4998687;28;20054;-88
2020/12/31 09:09:28;;;;;;;9.25;6.00;;;;;;;3.62;81.52;99339.91;5013559;28;20065;-85
2020/12/31 09:12:04;;;;;;;9.27;5.95;;;;;;;3.63;80.21;99331.13;4995990;28;20088;-87
2020/12/31 09:14:38;;;;;;;8.75;5.10;;;;;;;3.73;79.87;99335.16;5013375;28;20053;-87
2020/12/31 09:17:24;;;;;;;8.48;5.22;;;;;;;3.81;79.48;99333.09;4991884;28;20089;-86
2020/12/31 09:19:57;;;;;;;10.70;5.28;;;;;;;3.83;80.13;99326.03;4993709;28;20041;-86
2020/12/31 09:22:34;;;;;;;7.47;5.30;;;;;;;3.82;79.69;99328.72;5010563;28;20055;-87
2020/12/31 09:25:09;;;;;;;8.45;5.55;;;;;;;3.90;81.05;99338.94;5001620;28;20038;-87
2020/12/31 09:27:38;;;;;;;7.35;5.20;;;;;;;3.86;79.78;99318.09;5000401;28;20054;-81
2020/12/31 09:30:10;;;;;;;11.57;6.20;;;;;;;3.88;80.39;99328.50;5013183;28;20046;-85
2020/12/31 09:32:38;;;;;;;10.40;6.20;;;;;;;4.02;80.05;99326.22;5004317;28;20106;-87
2020/12/31 09:35:06;;;;;;;8.60;5.60;;;;;;;4.09;79.31;99329.47;5020921;28;20042;-86
2020/12/31 09:37:50;;;;;;;7.22;5.70;;;;;;;4.10;79.90;99320.69;5001515;28;20063;-88
2020/12/31 09:40:17;;;;;;;8.50;5.45;;;;;;;4.17;78.84;99316.94;5001492;28;20092;-88
2020/12/31 09:42:44;;;;;;;9.15;5.80;;;;;;;4.20;78.92;99329.91;5005902;28;20562;-88
2020/12/31 09:45:11;;;;;;;9.45;5.85;;;;;;;4.21;79.46;99322.00;5005007;28;20163;-89
2020/12/31 09:47:38;;;;;;;8.52;5.55;;;;;;;4.31;78.54;99325.13;5017849;28;20132;-89
2020/12/31 09:50:06;;;;;;;8.77;5.65;;;;;;;4.37;78.50;99324.88;5018406;28;20401;-87
2020/12/31 09:52:34;;;;;;;10.70;6.30;;;;;;;4.38;78.35;99321.34;5015842;28;20116;-87
2020/12/31 09:55:24;;;;;;;8.65;5.80;;;;;;;4.37;78.08;99314.41;4996997;28;20141;-87
2020/12/31 09:58:05;;;;;;;9.25;5.80;;;;;;;4.36;76.91;99317.09;5000310;28;20115;-87
2020/12/31 10:00:47;;;;;;;8.40;6.03;;;;;;;4.28;77.06;99325.22;5000553;28;20045;-89
2020/12/31 10:03:13;;;;;;;8.45;5.95;;;;;;;4.14;77.56;99322.28;5014569;28;20128;-87
2020/12/31 10:05:41;;;;;;;11.35;6.90;;;;;;;3.93;78.69;99303.00;5016477;28;20119;-88
2020/12/31 10:08:10;;;;;;;12.02;6.82;;;;;;;3.92;79.98;99319.63;4997450;28;20046;-88
2020/12/31 10:10:37;;;;;;;10.10;7.22;;;;;;;3.90;79.86;99310.13;5012330;28;20085;-87
2020/12/31 10:13:06;;;;;;;10.80;7.00;;;;;;;3.85;79.83;99316.38;4988253;28;20050;-88
2020/12/31 10:15:33;;;;;;;9.38;6.63;;;;;;;3.88;80.44;99315.41;4996419;28;20054;-87
2020/12/31 10:18:00;;;;;;;11.32;7.22;;;;;;;3.96;81.61;99317.72;5009063;28;20137;-88
2020/12/31 10:20:28;;;;;;;12.23;7.38;;;;;;;3.98;81.48;99319.38;5002482;28;20057;-87
2020/12/31 10:23:04;;;;;;;9.20;6.60;;;;;;;4.03;80.50;99314.84;4990768;28;20080;-88
2020/12/31 10:25:31;;;;;;;12.68;7.40;;;;;;;4.02;80.80;99307.88;5011290;28;20085;-88
2020/12/31 10:27:58;;;;;;;11.23;7.00;;;;;;;3.93;80.84;99312.63;4995372;28;20449;-92
2020/12/31 10:30:28;;;;;;;10.23;6.75;;;;;;;3.80;82.47;99302.59;5015237;28;20044;-94
2020/12/31 10:33:11;;;;;;;9.20;6.10;;;;;;;3.58;82.42;99308.66;5027627;28;20049;-91
2020/12/31 10:35:38;;;;;;;9.50;6.03;;;;;;;3.41;82.74;99307.50;5003417;28;20042;-91
2020/12/31 10:38:19;;;;;;;8.30;6.05;;;;;;;3.27;83.37;99303.66;5024981;28;20053;-91
2020/12/31 10:40:51;;;;;;;9.27;5.80;;;;;;;3.12;83.66;99302.44;5024215;28;20070;-90
2020/12/31 10:43:21;;;;;;;9.10;5.28;;;;;;;3.08;84.85;99311.28;5016752;28;20056;-89
2020/12/31 10:45:52;;;;;;;7.88;5.40;;;;;;;3.00;84.75;99294.97;5026994;28;20052;-88
2020/12/31 10:48:21;;;;;;;8.27;6.05;;;;;;;3.00;84.76;99298.44;4995536;28;20105;-91
2020/12/31 10:51:08;;;;;;;8.90;5.20;;;;;;;3.00;85.20;99301.06;5013466;28;20053;-90
2020/12/31 10:53:40;;;;;;;8.52;5.55;;;;;;;2.93;85.01;99269.97;5012251;28;20064;-91
2020/12/31 10:56:09;;;;;;;8.48;5.65;;;;;;;3.14;85.80;99283.16;5010536;28;20484;-92
2020/12/31 10:58:39;;;;;;;9.18;5.63;;;;;;;3.28;85.75;99284.44;5013892;28;20076;-91
2020/12/31 11:01:07;;;;;;;9.30;5.57;;;;;;;3.37;85.23;99271.88;4999447;28;20162;-89
2020/12/31 11:03:52;;;;;;;8.02;5.63;;;;;;;3.30;84.24;99261.69;5006028;28;20068;-90
2020/12/31 11:07:19;;;;;;;8.35;5.68;;;;;;;3.21;84.41;99252.41;5001137;28;20096;-92
2020/12/31 11:10:25;;;;;;;10.73;6.00;;;;;;;3.28;85.61;99247.81;4974915;28;20051;-87
2020/12/31 11:12:56;;;;;;;8.02;5.40;;;;;;;3.29;84.80;99263.47;4985412;28;20065;-88
2020/12/31 11:16:08;;;;;;;10.30;6.07;;;;;;;3.21;85.00;99259.41;4974137;28;20057;-84
2020/12/31 11:18:43;;;;;;;8.88;6.07;;;;;;;3.24;86.02;99254.91;4967470;28;20054;-91
2020/12/31 11:21:28;;;;;;;10.77;6.32;;;;;;;3.22;84.43;99241.03;4959622;28;20055;-90
2020/12/31 11:24:08;;;;;;;8.20;5.95;;;;;;;3.21;85.44;99238.47;4950871;28;20050;-87
2020/12/31 11:26:37;;;;;;;9.00;6.22;;;;;;;3.20;85.57;99239.38;4975602;28;20065;-90
2020/12/31 11:29:29;;;;;;;13.13;8.10;;;;;;;3.18;85.40;99221.97;4974038;28;20161;-92
2020/12/31 11:32:01;;;;;;;10.63;7.40;;;;;;;3.17;85.69;99224.63;4967830;28;20057;-92
2020/12/31 11:34:56;;;;;;;10.25;7.03;;;;;;;3.09;85.67;99214.47;4973942;28;20089;-84
2020/12/31 11:37:23;;;;;;;10.23;6.88;;;;;;;3.05;86.51;99223.31;4961662;28;20062;-88
2020/12/31 11:40:05;;;;;;;9.93;6.65;;;;;;;3.04;87.31;99225.97;4968375;28;20043;-87
2020/12/31 11:42:39;;;;;;;9.30;6.90;;;;;;;2.81;86.67;99203.25;4960189;28;20039;-90
2020/12/31 11:45:13;;;;;;;11.32;6.97;;;;;;;2.84;86.28;99216.19;4980866;28;20225;-88
2020/12/31 11:48:05;;;;;;;12.43;6.75;;;;;;;2.83;87.35;99211.91;4946284;28;20558;-85
2020/12/31 11:51:25;;;;;;;9.80;6.93;;;;;;;3.02;88.02;99214.72;4923790;28;20047;-90